sensor_id;sensor_type;location;lat;lon;timestamp;P1;durP1;ratioP1;P2;durP2;ratioP2
13269;SDS011;6703;51.994;7.570;2023-11-21T00:01:14;39.72;;;13.65;;
13269;SDS011;6703;51.994;7.570;2023-11-21T00:03:43;31.27;;;12.38;;
13269;SDS011;6703;51.994;7.570;2023-11-21T00:06:12;41.25;;;13.20;;
13269;SDS011;6703;51.994;7.570;2023-11-21T00:08:40;36.23;;;12.53;;
13269;SDS011;6703;51.994;7.570;2023-11-21T00:11:08;43.65;;;13.25;;
13269;SDS011;6703;51.994;7.570;2023-11-21T00:13:38;38.17;;;13.05;;
13269;SDS011;6703;51.994;7.570;2023-11-21T00:16:06;34.22;;;13.75;;
13269;SDS011;6703;51.994;7.570;2023-11-21T00:18:35;32.92;;;12.77;;
13269;SDS011;6703;51.994;7.570;2023-11-21T00:21:02;34.45;;;12.75;;
13269;SDS011;6703;51.994;7.570;2023-11-21T00:23:30;35.45;;;13.10;;
13269;SDS011;6703;51.994;7.570;2023-11-21T00:25:58;35.22;;;13.32;;
13269;SDS011;6703;51.994;7.570;2023-11-21T00:28:26;32.30;;;13.00;;
13269;SDS011;6703;51.994;7.570;2023-11-21T00:30:56;39.53;;;13.33;;
13269;SDS011;6703;51.994;7.570;2023-11-21T00:33:23;33.00;;;13.30;;
13269;SDS011;6703;51.994;7.570;2023-11-21T00:35:53;37.20;;;12.98;;
13269;SDS011;6703;51.994;7.570;2023-11-21T00:38:21;39.30;;;12.80;;
13269;SDS011;6703;51.994;7.570;2023-11-21T00:40:49;37.88;;;12.98;;
13269;SDS011;6703;51.994;7.570;2023-11-21T00:43:17;34.25;;;12.85;;
13269;SDS011;6703;51.994;7.570;2023-11-21T00:45:49;37.93;;;12.77;;
13269;SDS011;6703;51.994;7.570;2023-11-21T00:48:18;39.35;;;12.90;;
13269;SDS011;6703;51.994;7.570;2023-11-21T00:50:47;39.20;;;12.60;;
13269;SDS011;6703;51.994;7.570;2023-11-21T00:53:15;34.38;;;12.70;;
13269;SDS011;6703;51.994;7.570;2023-11-21T00:55:43;31.45;;;12.57;;
13269;SDS011;6703;51.994;7.570;2023-11-21T00:58:12;35.05;;;13.10;;
13269;SDS011;6703;51.994;7.570;2023-11-21T01:00:39;31.52;;;12.15;;
13269;SDS011;6703;51.994;7.570;2023-11-21T01:03:08;39.53;;;12.60;;
13269;SDS011;6703;51.994;7.570;2023-11-21T01:05:37;35.05;;;12.63;;
13269;SDS011;6703;51.994;7.570;2023-11-21T01:08:06;30.25;;;11.55;;
13269;SDS011;6703;51.994;7.570;2023-11-21T01:10:33;45.03;;;11.90;;
13269;SDS011;6703;51.994;7.570;2023-11-21T01:13:02;41.03;;;12.60;;
13269;SDS011;6703;51.994;7.570;2023-11-21T01:15:31;38.65;;;11.50;;
13269;SDS011;6703;51.994;7.570;2023-11-21T01:17:59;35.42;;;12.35;;
13269;SDS011;6703;51.994;7.570;2023-11-21T01:20:27;31.92;;;10.50;;
13269;SDS011;6703;51.994;7.570;2023-11-21T01:22:57;30.98;;;11.63;;
13269;SDS011;6703;51.994;7.570;2023-11-21T01:25:25;42.22;;;13.60;;
13269;SDS011;6703;51.994;7.570;2023-11-21T01:27:53;38.97;;;12.55;;
13269;SDS011;6703;51.994;7.570;2023-11-21T01:30:20;38.88;;;12.45;;
13269;SDS011;6703;51.994;7.570;2023-11-21T01:32:49;36.80;;;12.65;;
13269;SDS011;6703;51.994;7.570;2023-11-21T01:35:16;39.67;;;12.43;;
13269;SDS011;6703;51.994;7.570;2023-11-21T01:37:44;30.97;;;11.73;;
13269;SDS011;6703;51.994;7.570;2023-11-21T01:40:15;34.05;;;12.63;;
13269;SDS011;6703;51.994;7.570;2023-11-21T01:42:43;41.97;;;13.55;;
13269;SDS011;6703;51.994;7.570;2023-11-21T01:45:14;26.27;;;11.82;;
13269;SDS011;6703;51.994;7.570;2023-11-21T01:47:41;32.67;;;12.87;;
13269;SDS011;6703;51.994;7.570;2023-11-21T01:50:12;31.65;;;11.13;;
13269;SDS011;6703;51.994;7.570;2023-11-21T01:52:43;39.17;;;12.48;;
13269;SDS011;6703;51.994;7.570;2023-11-21T01:55:12;36.13;;;13.05;;
13269;SDS011;6703;51.994;7.570;2023-11-21T01:57:54;29.50;;;10.95;;
13269;SDS011;6703;51.994;7.570;2023-11-21T02:00:22;30.42;;;11.13;;
13269;SDS011;6703;51.994;7.570;2023-11-21T02:02:51;33.70;;;11.88;;
13269;SDS011;6703;51.994;7.570;2023-11-21T02:05:19;37.72;;;12.77;;
13269;SDS011;6703;51.994;7.570;2023-11-21T02:07:48;32.58;;;12.15;;
13269;SDS011;6703;51.994;7.570;2023-11-21T02:10:18;35.67;;;13.57;;
13269;SDS011;6703;51.994;7.570;2023-11-21T02:12:50;42.80;;;14.63;;
13269;SDS011;6703;51.994;7.570;2023-11-21T02:15:18;38.78;;;13.50;;
13269;SDS011;6703;51.994;7.570;2023-11-21T02:17:48;44.33;;;15.17;;
13269;SDS011;6703;51.994;7.570;2023-11-21T02:20:19;36.75;;;13.73;;
13269;SDS011;6703;51.994;7.570;2023-11-21T02:22:50;35.25;;;14.48;;
13269;SDS011;6703;51.994;7.570;2023-11-21T02:25:23;46.35;;;15.07;;
13269;SDS011;6703;51.994;7.570;2023-11-21T02:27:52;53.95;;;15.57;;
13269;SDS011;6703;51.994;7.570;2023-11-21T02:30:21;44.92;;;14.80;;
13269;SDS011;6703;51.994;7.570;2023-11-21T02:32:49;41.10;;;14.43;;
13269;SDS011;6703;51.994;7.570;2023-11-21T02:35:20;47.70;;;14.48;;
13269;SDS011;6703;51.994;7.570;2023-11-21T02:37:48;40.47;;;14.35;;
13269;SDS011;6703;51.994;7.570;2023-11-21T02:40:17;49.10;;;15.60;;
13269;SDS011;6703;51.994;7.570;2023-11-21T02:42:47;45.95;;;15.18;;
13269;SDS011;6703;51.994;7.570;2023-11-21T02:45:18;40.90;;;14.35;;
13269;SDS011;6703;51.994;7.570;2023-11-21T02:47:48;39.95;;;14.10;;
13269;SDS011;6703;51.994;7.570;2023-11-21T02:50:16;41.30;;;13.88;;
13269;SDS011;6703;51.994;7.570;2023-11-21T02:52:46;43.50;;;14.35;;
13269;SDS011;6703;51.994;7.570;2023-11-21T02:55:13;46.80;;;14.38;;
13269;SDS011;6703;51.994;7.570;2023-11-21T02:57:43;47.03;;;15.20;;
13269;SDS011;6703;51.994;7.570;2023-11-21T03:00:11;41.90;;;15.35;;
13269;SDS011;6703;51.994;7.570;2023-11-21T03:02:41;54.30;;;15.88;;
13269;SDS011;6703;51.994;7.570;2023-11-21T03:05:10;46.43;;;15.70;;
13269;SDS011;6703;51.994;7.570;2023-11-21T03:07:38;44.88;;;15.38;;
13269;SDS011;6703;51.994;7.570;2023-11-21T03:10:07;50.65;;;16.80;;
13269;SDS011;6703;51.994;7.570;2023-11-21T03:12:38;50.92;;;15.98;;
13269;SDS011;6703;51.994;7.570;2023-11-21T03:15:08;44.95;;;15.88;;
13269;SDS011;6703;51.994;7.570;2023-11-21T03:17:37;47.80;;;16.63;;
13269;SDS011;6703;51.994;7.570;2023-11-21T03:20:06;50.55;;;16.00;;
13269;SDS011;6703;51.994;7.570;2023-11-21T03:22:39;46.13;;;15.40;;
13269;SDS011;6703;51.994;7.570;2023-11-21T03:25:07;48.73;;;15.83;;
13269;SDS011;6703;51.994;7.570;2023-11-21T03:27:38;50.33;;;16.87;;
13269;SDS011;6703;51.994;7.570;2023-11-21T03:30:08;49.00;;;15.00;;
13269;SDS011;6703;51.994;7.570;2023-11-21T03:32:38;54.88;;;16.95;;
13269;SDS011;6703;51.994;7.570;2023-11-21T03:35:06;48.95;;;14.60;;
13269;SDS011;6703;51.994;7.570;2023-11-21T03:37:35;53.47;;;15.30;;
13269;SDS011;6703;51.994;7.570;2023-11-21T03:40:05;58.40;;;15.43;;
13269;SDS011;6703;51.994;7.570;2023-11-21T03:42:35;49.25;;;14.68;;
13269;SDS011;6703;51.994;7.570;2023-11-21T03:45:03;47.95;;;14.90;;
13269;SDS011;6703;51.994;7.570;2023-11-21T03:47:32;47.40;;;15.02;;
13269;SDS011;6703;51.994;7.570;2023-11-21T03:50:01;55.53;;;15.40;;
13269;SDS011;6703;51.994;7.570;2023-11-21T03:52:29;53.65;;;15.63;;
13269;SDS011;6703;51.994;7.570;2023-11-21T03:54:58;53.47;;;15.93;;
13269;SDS011;6703;51.994;7.570;2023-11-21T03:57:25;49.67;;;15.63;;
13269;SDS011;6703;51.994;7.570;2023-11-21T03:59:54;48.17;;;15.40;;
13269;SDS011;6703;51.994;7.570;2023-11-21T04:02:21;48.53;;;15.38;;
13269;SDS011;6703;51.994;7.570;2023-11-21T04:04:53;51.92;;;14.65;;
13269;SDS011;6703;51.994;7.570;2023-11-21T04:07:23;45.53;;;14.98;;
13269;SDS011;6703;51.994;7.570;2023-11-21T04:09:51;50.63;;;15.45;;
13269;SDS011;6703;51.994;7.570;2023-11-21T04:12:19;52.57;;;15.67;;
13269;SDS011;6703;51.994;7.570;2023-11-21T04:14:48;54.53;;;15.48;;
13269;SDS011;6703;51.994;7.570;2023-11-21T04:17:17;54.65;;;15.82;;
13269;SDS011;6703;51.994;7.570;2023-11-21T04:19:46;53.53;;;16.03;;
13269;SDS011;6703;51.994;7.570;2023-11-21T04:22:15;39.05;;;13.77;;
13269;SDS011;6703;51.994;7.570;2023-11-21T04:24:44;40.60;;;12.82;;
13269;SDS011;6703;51.994;7.570;2023-11-21T04:27:12;51.63;;;15.25;;
13269;SDS011;6703;51.994;7.570;2023-11-21T04:29:41;51.78;;;14.95;;
13269;SDS011;6703;51.994;7.570;2023-11-21T04:32:08;39.85;;;14.45;;
13269;SDS011;6703;51.994;7.570;2023-11-21T04:34:37;46.28;;;14.10;;
13269;SDS011;6703;51.994;7.570;2023-11-21T04:37:05;50.03;;;14.73;;
13269;SDS011;6703;51.994;7.570;2023-11-21T04:39:34;52.40;;;14.55;;
13269;SDS011;6703;51.994;7.570;2023-11-21T04:42:02;47.95;;;13.63;;
13269;SDS011;6703;51.994;7.570;2023-11-21T04:44:30;48.90;;;14.60;;
13269;SDS011;6703;51.994;7.570;2023-11-21T04:46:59;45.72;;;14.15;;
13269;SDS011;6703;51.994;7.570;2023-11-21T04:49:26;43.03;;;13.37;;
13269;SDS011;6703;51.994;7.570;2023-11-21T04:51:55;49.65;;;14.77;;
13269;SDS011;6703;51.994;7.570;2023-11-21T04:54:23;35.13;;;11.82;;
13269;SDS011;6703;51.994;7.570;2023-11-21T04:56:55;46.05;;;13.30;;
13269;SDS011;6703;51.994;7.570;2023-11-21T04:59:23;40.67;;;12.73;;
13269;SDS011;6703;51.994;7.570;2023-11-21T05:01:53;45.92;;;14.35;;
13269;SDS011;6703;51.994;7.570;2023-11-21T05:04:21;47.47;;;14.68;;
13269;SDS011;6703;51.994;7.570;2023-11-21T05:06:50;49.63;;;15.10;;
13269;SDS011;6703;51.994;7.570;2023-11-21T05:09:18;44.90;;;13.50;;
13269;SDS011;6703;51.994;7.570;2023-11-21T05:11:45;46.38;;;14.32;;
13269;SDS011;6703;51.994;7.570;2023-11-21T05:14:15;46.88;;;14.15;;
13269;SDS011;6703;51.994;7.570;2023-11-21T05:16:45;50.00;;;14.40;;
13269;SDS011;6703;51.994;7.570;2023-11-21T05:19:13;48.30;;;14.50;;
13269;SDS011;6703;51.994;7.570;2023-11-21T05:21:41;40.72;;;12.80;;
13269;SDS011;6703;51.994;7.570;2023-11-21T05:24:09;49.30;;;13.40;;
13269;SDS011;6703;51.994;7.570;2023-11-21T05:26:36;48.57;;;16.17;;
13269;SDS011;6703;51.994;7.570;2023-11-21T05:31:59;57.15;;;15.35;;
13269;SDS011;6703;51.994;7.570;2023-11-21T05:37:12;52.53;;;15.73;;
13269;SDS011;6703;51.994;7.570;2023-11-21T05:39:41;55.15;;;15.52;;
13269;SDS011;6703;51.994;7.570;2023-11-21T05:42:08;57.92;;;16.67;;
13269;SDS011;6703;51.994;7.570;2023-11-21T05:44:40;60.70;;;16.23;;
13269;SDS011;6703;51.994;7.570;2023-11-21T05:47:09;55.67;;;15.98;;
13269;SDS011;6703;51.994;7.570;2023-11-21T05:49:37;51.25;;;14.95;;
13269;SDS011;6703;51.994;7.570;2023-11-21T05:52:05;46.72;;;15.27;;
13269;SDS011;6703;51.994;7.570;2023-11-21T05:54:33;51.35;;;16.85;;
13269;SDS011;6703;51.994;7.570;2023-11-21T05:57:01;55.95;;;16.35;;
13269;SDS011;6703;51.994;7.570;2023-11-21T05:59:28;63.45;;;18.73;;
13269;SDS011;6703;51.994;7.570;2023-11-21T06:01:58;52.17;;;16.60;;
13269;SDS011;6703;51.994;7.570;2023-11-21T06:04:26;60.28;;;16.90;;
13269;SDS011;6703;51.994;7.570;2023-11-21T06:06:54;65.82;;;16.73;;
13269;SDS011;6703;51.994;7.570;2023-11-21T06:09:22;57.35;;;16.20;;
13269;SDS011;6703;51.994;7.570;2023-11-21T06:11:51;57.00;;;17.17;;
13269;SDS011;6703;51.994;7.570;2023-11-21T06:14:19;62.58;;;18.35;;
13269;SDS011;6703;51.994;7.570;2023-11-21T06:16:48;65.85;;;17.65;;
13269;SDS011;6703;51.994;7.570;2023-11-21T06:19:18;70.43;;;17.42;;
13269;SDS011;6703;51.994;7.570;2023-11-21T06:21:47;53.13;;;16.60;;
13269;SDS011;6703;51.994;7.570;2023-11-21T06:24:15;58.03;;;16.48;;
13269;SDS011;6703;51.994;7.570;2023-11-21T06:26:43;57.85;;;17.83;;
13269;SDS011;6703;51.994;7.570;2023-11-21T06:29:11;59.22;;;16.75;;
13269;SDS011;6703;51.994;7.570;2023-11-21T06:31:52;61.67;;;17.75;;
13269;SDS011;6703;51.994;7.570;2023-11-21T06:34:23;60.55;;;16.65;;
13269;SDS011;6703;51.994;7.570;2023-11-21T06:36:50;57.65;;;16.20;;
13269;SDS011;6703;51.994;7.570;2023-11-21T06:39:19;69.45;;;17.98;;
13269;SDS011;6703;51.994;7.570;2023-11-21T06:41:49;62.65;;;17.30;;
13269;SDS011;6703;51.994;7.570;2023-11-21T06:44:17;65.38;;;16.88;;
13269;SDS011;6703;51.994;7.570;2023-11-21T06:46:46;57.20;;;15.98;;
13269;SDS011;6703;51.994;7.570;2023-11-21T06:49:15;65.63;;;18.07;;
13269;SDS011;6703;51.994;7.570;2023-11-21T06:51:45;64.32;;;16.95;;
13269;SDS011;6703;51.994;7.570;2023-11-21T06:54:13;60.60;;;16.73;;
13269;SDS011;6703;51.994;7.570;2023-11-21T06:56:41;58.30;;;16.00;;
13269;SDS011;6703;51.994;7.570;2023-11-21T06:59:09;61.28;;;16.02;;
13269;SDS011;6703;51.994;7.570;2023-11-21T07:01:37;74.10;;;17.70;;
13269;SDS011;6703;51.994;7.570;2023-11-21T07:04:08;58.65;;;17.33;;
13269;SDS011;6703;51.994;7.570;2023-11-21T07:06:36;62.65;;;17.60;;
13269;SDS011;6703;51.994;7.570;2023-11-21T07:09:05;63.45;;;17.00;;
13269;SDS011;6703;51.994;7.570;2023-11-21T07:11:34;70.30;;;18.98;;
13269;SDS011;6703;51.994;7.570;2023-11-21T07:14:07;83.28;;;19.40;;
13269;SDS011;6703;51.994;7.570;2023-11-21T07:16:35;80.30;;;19.80;;
13269;SDS011;6703;51.994;7.570;2023-11-21T07:19:04;84.72;;;19.77;;
13269;SDS011;6703;51.994;7.570;2023-11-21T07:21:32;97.95;;;20.30;;
13269;SDS011;6703;51.994;7.570;2023-11-21T07:24:00;107.88;;;20.85;;
13269;SDS011;6703;51.994;7.570;2023-11-21T07:26:29;107.33;;;20.50;;
13269;SDS011;6703;51.994;7.570;2023-11-21T07:28:57;95.85;;;20.23;;
13269;SDS011;6703;51.994;7.570;2023-11-21T07:31:25;100.25;;;20.10;;
13269;SDS011;6703;51.994;7.570;2023-11-21T07:33:53;88.50;;;19.67;;
13269;SDS011;6703;51.994;7.570;2023-11-21T07:36:23;86.72;;;19.83;;
13269;SDS011;6703;51.994;7.570;2023-11-21T07:38:51;91.07;;;20.08;;
13269;SDS011;6703;51.994;7.570;2023-11-21T07:41:20;87.07;;;20.10;;
13269;SDS011;6703;51.994;7.570;2023-11-21T07:43:58;103.27;;;21.33;;
13269;SDS011;6703;51.994;7.570;2023-11-21T07:46:26;86.28;;;19.70;;
13269;SDS011;6703;51.994;7.570;2023-11-21T07:48:54;93.65;;;21.20;;
13269;SDS011;6703;51.994;7.570;2023-11-21T07:51:23;93.60;;;20.85;;
13269;SDS011;6703;51.994;7.570;2023-11-21T07:53:51;87.90;;;20.05;;
13269;SDS011;6703;51.994;7.570;2023-11-21T07:56:18;92.10;;;20.40;;
13269;SDS011;6703;51.994;7.570;2023-11-21T07:58:47;86.32;;;20.85;;
13269;SDS011;6703;51.994;7.570;2023-11-21T08:01:20;96.00;;;22.50;;
13269;SDS011;6703;51.994;7.570;2023-11-21T08:03:48;91.70;;;21.67;;
13269;SDS011;6703;51.994;7.570;2023-11-21T08:06:18;91.97;;;22.60;;
13269;SDS011;6703;51.994;7.570;2023-11-21T08:08:46;93.20;;;20.92;;
13269;SDS011;6703;51.994;7.570;2023-11-21T08:11:14;90.78;;;21.30;;
13269;SDS011;6703;51.994;7.570;2023-11-21T08:13:44;88.97;;;20.57;;
13269;SDS011;6703;51.994;7.570;2023-11-21T08:16:13;77.38;;;18.25;;
13269;SDS011;6703;51.994;7.570;2023-11-21T08:18:42;72.18;;;19.38;;
13269;SDS011;6703;51.994;7.570;2023-11-21T08:21:12;80.70;;;18.17;;
13269;SDS011;6703;51.994;7.570;2023-11-21T08:23:40;60.38;;;16.08;;
13269;SDS011;6703;51.994;7.570;2023-11-21T08:26:08;64.28;;;17.67;;
13269;SDS011;6703;51.994;7.570;2023-11-21T08:28:36;61.33;;;16.77;;
13269;SDS011;6703;51.994;7.570;2023-11-21T08:31:04;72.27;;;17.17;;
13269;SDS011;6703;51.994;7.570;2023-11-21T08:33:32;58.97;;;16.73;;
13269;SDS011;6703;51.994;7.570;2023-11-21T08:36:06;54.30;;;14.93;;
13269;SDS011;6703;51.994;7.570;2023-11-21T08:38:34;45.15;;;13.98;;
13269;SDS011;6703;51.994;7.570;2023-11-21T08:41:05;46.78;;;13.13;;
13269;SDS011;6703;51.994;7.570;2023-11-21T08:43:34;38.28;;;11.98;;
13269;SDS011;6703;51.994;7.570;2023-11-21T08:46:06;36.97;;;11.93;;
13269;SDS011;6703;51.994;7.570;2023-11-21T08:48:53;38.78;;;12.77;;
13269;SDS011;6703;51.994;7.570;2023-11-21T08:51:22;46.20;;;13.40;;
13269;SDS011;6703;51.994;7.570;2023-11-21T08:53:51;50.72;;;13.35;;
13269;SDS011;6703;51.994;7.570;2023-11-21T08:56:19;50.53;;;13.63;;
13269;SDS011;6703;51.994;7.570;2023-11-21T08:58:47;39.28;;;11.63;;
13269;SDS011;6703;51.994;7.570;2023-11-21T09:01:17;44.65;;;12.00;;
13269;SDS011;6703;51.994;7.570;2023-11-21T09:03:45;37.08;;;10.95;;
13269;SDS011;6703;51.994;7.570;2023-11-21T09:06:14;35.70;;;10.60;;
13269;SDS011;6703;51.994;7.570;2023-11-21T09:08:43;32.92;;;10.57;;
13269;SDS011;6703;51.994;7.570;2023-11-21T09:11:11;39.22;;;10.80;;
13269;SDS011;6703;51.994;7.570;2023-11-21T09:13:40;31.43;;;10.20;;
13269;SDS011;6703;51.994;7.570;2023-11-21T09:16:08;43.40;;;11.30;;
13269;SDS011;6703;51.994;7.570;2023-11-21T09:18:37;42.88;;;12.75;;
13269;SDS011;6703;51.994;7.570;2023-11-21T09:21:06;37.37;;;11.07;;
13269;SDS011;6703;51.994;7.570;2023-11-21T09:23:35;36.00;;;11.52;;
13269;SDS011;6703;51.994;7.570;2023-11-21T09:26:05;37.85;;;11.18;;
13269;SDS011;6703;51.994;7.570;2023-11-21T09:28:32;30.63;;;10.85;;
13269;SDS011;6703;51.994;7.570;2023-11-21T09:31:01;31.58;;;10.48;;
13269;SDS011;6703;51.994;7.570;2023-11-21T09:33:31;33.33;;;11.18;;
13269;SDS011;6703;51.994;7.570;2023-11-21T09:36:00;32.63;;;9.83;;
13269;SDS011;6703;51.994;7.570;2023-11-21T09:38:31;25.13;;;9.23;;
13269;SDS011;6703;51.994;7.570;2023-11-21T09:40:59;28.67;;;9.45;;
13269;SDS011;6703;51.994;7.570;2023-11-21T09:43:29;20.17;;;8.37;;
13269;SDS011;6703;51.994;7.570;2023-11-21T09:45:59;20.95;;;8.63;;
13269;SDS011;6703;51.994;7.570;2023-11-21T09:48:28;23.92;;;8.52;;
13269;SDS011;6703;51.994;7.570;2023-11-21T09:50:57;28.30;;;9.50;;
13269;SDS011;6703;51.994;7.570;2023-11-21T09:53:27;30.33;;;9.50;;
13269;SDS011;6703;51.994;7.570;2023-11-21T09:55:56;30.10;;;10.07;;
13269;SDS011;6703;51.994;7.570;2023-11-21T09:58:26;27.02;;;9.93;;
13269;SDS011;6703;51.994;7.570;2023-11-21T10:00:57;32.47;;;9.80;;
13269;SDS011;6703;51.994;7.570;2023-11-21T10:03:25;28.17;;;10.43;;
13269;SDS011;6703;51.994;7.570;2023-11-21T10:05:53;31.20;;;10.40;;
13269;SDS011;6703;51.994;7.570;2023-11-21T10:08:25;32.55;;;11.48;;
13269;SDS011;6703;51.994;7.570;2023-11-21T10:11:11;33.97;;;11.35;;
13269;SDS011;6703;51.994;7.570;2023-11-21T10:13:40;28.87;;;11.03;;
13269;SDS011;6703;51.994;7.570;2023-11-21T10:16:11;32.50;;;11.73;;
13269;SDS011;6703;51.994;7.570;2023-11-21T10:18:42;35.10;;;11.88;;
13269;SDS011;6703;51.994;7.570;2023-11-21T10:21:12;29.85;;;11.65;;
13269;SDS011;6703;51.994;7.570;2023-11-21T10:23:40;36.88;;;12.27;;
13269;SDS011;6703;51.994;7.570;2023-11-21T10:26:11;30.52;;;11.30;;
13269;SDS011;6703;51.994;7.570;2023-11-21T10:28:54;33.38;;;11.70;;
13269;SDS011;6703;51.994;7.570;2023-11-21T10:31:25;39.30;;;13.30;;
13269;SDS011;6703;51.994;7.570;2023-11-21T10:33:54;32.40;;;11.80;;
13269;SDS011;6703;51.994;7.570;2023-11-21T10:36:26;32.13;;;11.57;;
13269;SDS011;6703;51.994;7.570;2023-11-21T10:38:54;33.47;;;12.15;;
13269;SDS011;6703;51.994;7.570;2023-11-21T10:41:23;41.08;;;13.43;;
13269;SDS011;6703;51.994;7.570;2023-11-21T10:43:52;34.85;;;12.38;;
13269;SDS011;6703;51.994;7.570;2023-11-21T10:46:21;40.70;;;11.80;;
13269;SDS011;6703;51.994;7.570;2023-11-21T10:48:53;33.35;;;11.32;;
13269;SDS011;6703;51.994;7.570;2023-11-21T10:51:22;33.00;;;11.80;;
13269;SDS011;6703;51.994;7.570;2023-11-21T10:53:51;32.60;;;11.52;;
13269;SDS011;6703;51.994;7.570;2023-11-21T10:56:20;34.45;;;11.65;;
13269;SDS011;6703;51.994;7.570;2023-11-21T10:58:51;26.87;;;10.90;;
13269;SDS011;6703;51.994;7.570;2023-11-21T11:01:20;30.70;;;11.10;;
13269;SDS011;6703;51.994;7.570;2023-11-21T11:03:50;37.05;;;11.77;;
13269;SDS011;6703;51.994;7.570;2023-11-21T11:06:21;31.65;;;10.65;;
13269;SDS011;6703;51.994;7.570;2023-11-21T11:08:52;32.40;;;10.63;;
13269;SDS011;6703;51.994;7.570;2023-11-21T11:11:20;30.02;;;10.07;;
13269;SDS011;6703;51.994;7.570;2023-11-21T11:13:49;26.77;;;10.68;;
13269;SDS011;6703;51.994;7.570;2023-11-21T11:16:17;24.10;;;9.57;;
13269;SDS011;6703;51.994;7.570;2023-11-21T11:18:46;28.13;;;9.23;;
13269;SDS011;6703;51.994;7.570;2023-11-21T11:21:23;27.30;;;9.70;;
13269;SDS011;6703;51.994;7.570;2023-11-21T11:23:59;22.92;;;8.60;;
13269;SDS011;6703;51.994;7.570;2023-11-21T11:26:37;22.57;;;8.50;;
13269;SDS011;6703;51.994;7.570;2023-11-21T11:29:14;24.10;;;9.18;;
13269;SDS011;6703;51.994;7.570;2023-11-21T11:31:50;25.33;;;9.45;;
13269;SDS011;6703;51.994;7.570;2023-11-21T11:34:26;20.90;;;8.77;;
13269;SDS011;6703;51.994;7.570;2023-11-21T11:37:01;22.88;;;8.73;;
13269;SDS011;6703;51.994;7.570;2023-11-21T11:39:31;23.83;;;9.27;;
13269;SDS011;6703;51.994;7.570;2023-11-21T11:42:03;26.17;;;9.85;;
13269;SDS011;6703;51.994;7.570;2023-11-21T11:44:48;25.15;;;9.80;;
13269;SDS011;6703;51.994;7.570;2023-11-21T11:47:20;22.00;;;8.80;;
13269;SDS011;6703;51.994;7.570;2023-11-21T11:49:57;20.45;;;8.23;;
13269;SDS011;6703;51.994;7.570;2023-11-21T11:52:37;23.63;;;8.73;;
13269;SDS011;6703;51.994;7.570;2023-11-21T11:55:08;18.08;;;7.93;;
13269;SDS011;6703;51.994;7.570;2023-11-21T11:57:40;16.88;;;7.53;;
13269;SDS011;6703;51.994;7.570;2023-11-21T12:00:09;19.17;;;7.43;;
13269;SDS011;6703;51.994;7.570;2023-11-21T12:02:38;22.02;;;7.93;;
13269;SDS011;6703;51.994;7.570;2023-11-21T12:05:08;18.30;;;7.60;;
13269;SDS011;6703;51.994;7.570;2023-11-21T12:07:45;14.40;;;6.75;;
13269;SDS011;6703;51.994;7.570;2023-11-21T12:10:15;16.05;;;6.80;;
13269;SDS011;6703;51.994;7.570;2023-11-21T12:12:45;13.63;;;6.57;;
13269;SDS011;6703;51.994;7.570;2023-11-21T12:15:14;12.77;;;6.05;;
13269;SDS011;6703;51.994;7.570;2023-11-21T12:17:42;12.57;;;6.10;;
13269;SDS011;6703;51.994;7.570;2023-11-21T12:20:12;9.27;;;5.00;;
13269;SDS011;6703;51.994;7.570;2023-11-21T12:22:45;8.73;;;4.97;;
13269;SDS011;6703;51.994;7.570;2023-11-21T12:25:18;8.90;;;5.03;;
13269;SDS011;6703;51.994;7.570;2023-11-21T12:27:47;8.93;;;5.13;;
13269;SDS011;6703;51.994;7.570;2023-11-21T12:30:16;10.02;;;4.68;;
13269;SDS011;6703;51.994;7.570;2023-11-21T12:32:47;7.50;;;4.57;;
13269;SDS011;6703;51.994;7.570;2023-11-21T12:35:17;9.30;;;4.80;;
13269;SDS011;6703;51.994;7.570;2023-11-21T12:37:48;8.63;;;5.00;;
13269;SDS011;6703;51.994;7.570;2023-11-21T12:40:17;10.50;;;5.63;;
13269;SDS011;6703;51.994;7.570;2023-11-21T12:42:46;12.25;;;5.55;;
13269;SDS011;6703;51.994;7.570;2023-11-21T12:45:19;9.75;;;4.97;;
13269;SDS011;6703;51.994;7.570;2023-11-21T12:47:48;9.27;;;5.30;;
13269;SDS011;6703;51.994;7.570;2023-11-21T12:50:18;10.30;;;5.35;;
13269;SDS011;6703;51.994;7.570;2023-11-21T12:52:51;11.53;;;5.47;;
13269;SDS011;6703;51.994;7.570;2023-11-21T12:55:20;12.50;;;6.30;;
13269;SDS011;6703;51.994;7.570;2023-11-21T12:57:49;9.52;;;5.60;;
13269;SDS011;6703;51.994;7.570;2023-11-21T13:00:28;12.07;;;6.18;;
13269;SDS011;6703;51.994;7.570;2023-11-21T13:02:59;13.80;;;6.78;;
13269;SDS011;6703;51.994;7.570;2023-11-21T13:05:28;13.88;;;6.90;;
13269;SDS011;6703;51.994;7.570;2023-11-21T13:07:58;12.10;;;5.95;;
13269;SDS011;6703;51.994;7.570;2023-11-21T13:10:29;11.73;;;6.45;;
13269;SDS011;6703;51.994;7.570;2023-11-21T13:12:59;11.40;;;6.05;;
13269;SDS011;6703;51.994;7.570;2023-11-21T13:15:27;12.55;;;6.45;;
13269;SDS011;6703;51.994;7.570;2023-11-21T13:17:57;15.25;;;7.00;;
13269;SDS011;6703;51.994;7.570;2023-11-21T13:25:41;15.65;;;7.90;;
13269;SDS011;6703;51.994;7.570;2023-11-21T13:28:22;15.20;;;7.88;;
13269;SDS011;6703;51.994;7.570;2023-11-21T13:31:08;15.68;;;8.18;;
13269;SDS011;6703;51.994;7.570;2023-11-21T13:34:08;15.27;;;8.05;;
13269;SDS011;6703;51.994;7.570;2023-11-21T13:36:37;16.35;;;8.57;;
13269;SDS011;6703;51.994;7.570;2023-11-21T13:39:05;16.65;;;8.40;;
13269;SDS011;6703;51.994;7.570;2023-11-21T13:41:43;18.13;;;8.90;;
13269;SDS011;6703;51.994;7.570;2023-11-21T13:44:14;17.67;;;9.47;;
13269;SDS011;6703;51.994;7.570;2023-11-21T13:47:18;21.15;;;9.55;;
13269;SDS011;6703;51.994;7.570;2023-11-21T13:49:47;17.70;;;9.10;;
13269;SDS011;6703;51.994;7.570;2023-11-21T13:52:15;18.42;;;9.15;;
13269;SDS011;6703;51.994;7.570;2023-11-21T13:54:47;21.58;;;10.23;;
13269;SDS011;6703;51.994;7.570;2023-11-21T13:57:17;22.98;;;10.10;;
13269;SDS011;6703;51.994;7.570;2023-11-21T13:59:46;22.73;;;10.60;;
13269;SDS011;6703;51.994;7.570;2023-11-21T14:02:15;24.13;;;10.30;;
13269;SDS011;6703;51.994;7.570;2023-11-21T14:04:45;22.35;;;10.95;;
13269;SDS011;6703;51.994;7.570;2023-11-21T14:07:21;25.05;;;10.93;;
13269;SDS011;6703;51.994;7.570;2023-11-21T14:09:58;21.45;;;10.05;;
13269;SDS011;6703;51.994;7.570;2023-11-21T14:12:28;19.85;;;9.30;;
13269;SDS011;6703;51.994;7.570;2023-11-21T14:15:04;26.30;;;10.70;;
13269;SDS011;6703;51.994;7.570;2023-11-21T14:17:36;22.70;;;9.73;;
13269;SDS011;6703;51.994;7.570;2023-11-21T14:20:08;22.08;;;10.30;;
13269;SDS011;6703;51.994;7.570;2023-11-21T14:22:42;20.45;;;9.70;;
13269;SDS011;6703;51.994;7.570;2023-11-21T14:25:09;21.15;;;9.40;;
13269;SDS011;6703;51.994;7.570;2023-11-21T14:27:39;19.48;;;9.10;;
13269;SDS011;6703;51.994;7.570;2023-11-21T14:30:08;18.05;;;9.02;;
13269;SDS011;6703;51.994;7.570;2023-11-21T14:32:38;21.00;;;9.63;;
13269;SDS011;6703;51.994;7.570;2023-11-21T14:35:07;21.10;;;8.85;;
13269;SDS011;6703;51.994;7.570;2023-11-21T14:37:36;26.40;;;9.68;;
13269;SDS011;6703;51.994;7.570;2023-11-21T14:40:04;15.30;;;8.53;;
13269;SDS011;6703;51.994;7.570;2023-11-21T14:42:35;20.25;;;8.57;;
13269;SDS011;6703;51.994;7.570;2023-11-21T14:45:07;15.00;;;8.27;;
13269;SDS011;6703;51.994;7.570;2023-11-21T14:47:38;16.60;;;8.50;;
13269;SDS011;6703;51.994;7.570;2023-11-21T14:50:12;14.50;;;7.38;;
13269;SDS011;6703;51.994;7.570;2023-11-21T14:52:54;15.87;;;7.83;;
13269;SDS011;6703;51.994;7.570;2023-11-21T14:55:26;15.07;;;8.05;;
13269;SDS011;6703;51.994;7.570;2023-11-21T14:57:58;17.13;;;7.85;;
13269;SDS011;6703;51.994;7.570;2023-11-21T15:00:31;15.60;;;7.68;;
13269;SDS011;6703;51.994;7.570;2023-11-21T15:03:11;15.50;;;7.18;;
13269;SDS011;6703;51.994;7.570;2023-11-21T15:06:01;11.63;;;6.55;;